Terminal Aerodrome Forecast
Issued by NWS Grand Forks, ND

Home | Current Version | Previous Version | Graphics & Text | Print | Product List | Glossary On
Versions: 1 2 3 4 5 6 7 8 9 10 11 12 13 14 15 16 17 18 19
000
FTUS43 KFGF 270520
TAFGFK
TAF
KGFK 270520Z 2706/2806 VRB06KT P6SM SCT100 BKN250
     FM271500 21014KT P6SM SCT060
     FM272000 24015KT P6SM VCTS BKN060CB=

USA.gov is the U.S. government's official web portal to all federal, state and local government web resources and services.